Time;durP1;ratioP1;P1;durP2;ratioP2;P2;SDS_P1;SDS_P2;PMS_P1;PMS_P2;Temp;Humidity;BMP_temperature;BMP_pressure;BME280_temperature;BME280_humidity;BME280_pressure;Samples;Min_cycle;Max_cycle;Signal;HPM_P1;HPM_P2
2023/10/24 00:01:41;;;;;;;10.05;6.40;;;10.20;99.90;;;;;;5017432;28;20030;-65
2023/10/24 00:04:13;;;;;;;7.28;6.10;;;10.10;99.90;;;;;;5017685;28;20148;-65
2023/10/24 00:06:45;;;;;;;8.77;7.10;;;10.00;99.90;;;;;;5017903;28;20518;-64
2023/10/24 00:09:17;;;;;;;8.13;6.70;;;10.00;99.90;;;;;;5014249;28;20125;-65
2023/10/24 00:11:49;;;;;;;8.32;6.30;;;9.90;99.90;;;;;;5007191;28;20041;-64
2023/10/24 00:14:20;;;;;;;9.18;6.53;;;9.90;99.90;;;;;;5017652;28;20034;-65
2023/10/24 00:16:53;;;;;;;9.38;6.45;;;9.90;99.90;;;;;;5011478;28;20116;-65
2023/10/24 00:19:19;;;;;;;8.05;6.78;;;9.90;99.90;;;;;;5015355;28;20044;-65
2023/10/24 00:21:51;;;;;;;8.13;6.88;;;9.90;99.90;;;;;;5018343;28;20069;-65
2023/10/24 00:24:23;;;;;;;7.28;6.43;;;9.80;99.90;;;;;;5022521;28;20091;-65
2023/10/24 00:26:57;;;;;;;7.18;6.38;;;9.90;99.90;;;;;;5019962;28;20197;-65
2023/10/24 00:29:30;;;;;;;6.32;5.55;;;9.90;99.90;;;;;;5017452;28;20502;-65
2023/10/24 00:32:02;;;;;;;6.47;5.78;;;9.80;99.90;;;;;;5017266;28;20049;-65
2023/10/24 00:34:34;;;;;;;7.70;6.40;;;9.80;99.90;;;;;;5029806;28;20060;-65
2023/10/24 00:37:06;;;;;;;9.02;6.07;;;9.80;99.90;;;;;;5000339;28;20054;-65
2023/10/24 00:39:39;;;;;;;9.88;6.60;;;9.70;99.90;;;;;;5024457;28;20117;-65
2023/10/24 00:42:10;;;;;;;8.30;6.82;;;9.70;99.90;;;;;;5012850;28;20051;-65
2023/10/24 00:44:42;;;;;;;10.93;6.88;;;9.70;99.90;;;;;;5010210;28;20428;-65
2023/10/24 00:47:15;;;;;;;8.57;7.40;;;9.70;99.90;;;;;;5014691;28;20081;-64
2023/10/24 00:49:47;;;;;;;8.50;7.25;;;9.70;99.90;;;;;;5021620;28;20056;-65
2023/10/24 00:52:20;;;;;;;10.38;7.38;;;9.70;99.90;;;;;;5003796;28;20133;-64
2023/10/24 00:54:52;;;;;;;10.27;7.47;;;9.70;99.90;;;;;;5017993;28;20546;-65
2023/10/24 00:57:25;;;;;;;9.40;7.28;;;9.80;99.90;;;;;;5020527;28;20065;-65
2023/10/24 00:59:57;;;;;;;10.50;8.43;;;9.80;99.90;;;;;;5020411;28;20037;-64
2023/10/24 01:02:29;;;;;;;10.88;8.05;;;9.90;99.90;;;;;;5022603;28;20052;-64
2023/10/24 01:05:03;;;;;;;11.88;7.88;;;9.90;99.90;;;;;;4999453;28;20477;-65
2023/10/24 01:07:35;;;;;;;11.30;9.20;;;9.90;99.90;;;;;;5013758;28;20101;-64
2023/10/24 01:10:07;;;;;;;9.57;8.55;;;10.00;99.90;;;;;;4998076;28;20042;-64
2023/10/24 01:12:40;;;;;;;10.60;7.90;;;10.00;99.90;;;;;;5010398;28;20037;-65
2023/10/24 01:15:11;;;;;;;10.43;8.88;;;9.90;99.90;;;;;;5011131;28;20403;-64
2023/10/24 01:17:50;;;;;;;11.43;9.57;;;9.90;99.90;;;;;;5016211;28;20050;-65
2023/10/24 01:20:22;;;;;;;11.43;9.57;;;9.90;99.90;;;;;;4999755;28;20413;-64
2023/10/24 01:22:54;;;;;;;10.13;8.40;;;9.90;99.90;;;;;;5021076;28;20140;-65
2023/10/24 01:25:28;;;;;;;10.73;8.52;;;9.80;99.90;;;;;;5016491;28;20052;-64
2023/10/24 01:27:55;;;;;;;10.90;8.85;;;9.90;99.90;;;;;;5017953;28;20060;-64
2023/10/24 01:30:27;;;;;;;12.25;8.50;;;9.80;99.90;;;;;;5002782;28;20038;-64
2023/10/24 01:33:00;;;;;;;14.85;8.95;;;9.80;99.90;;;;;;5016827;28;20049;-65
2023/10/24 01:35:32;;;;;;;12.32;9.80;;;9.80;99.90;;;;;;5033235;28;20084;-64
2023/10/24 01:38:03;;;;;;;12.98;9.20;;;9.80;99.90;;;;;;4991375;28;20096;-65
2023/10/24 01:40:36;;;;;;;11.57;9.43;;;9.90;99.90;;;;;;5007378;28;20043;-64
2023/10/24 01:43:09;;;;;;;12.30;8.88;;;9.90;99.90;;;;;;4994828;28;20073;-64
2023/10/24 01:45:36;;;;;;;10.10;8.50;;;9.90;99.90;;;;;;5012782;28;20034;-65
2023/10/24 01:48:07;;;;;;;11.98;9.35;;;9.80;99.90;;;;;;5009856;28;20148;-65
2023/10/24 01:50:39;;;;;;;14.23;10.07;;;9.90;99.90;;;;;;5012228;28;20060;-65
2023/10/24 01:53:11;;;;;;;10.73;9.38;;;9.90;99.90;;;;;;5014157;28;20052;-64
2023/10/24 01:55:43;;;;;;;12.35;9.27;;;9.90;99.90;;;;;;4991076;28;20061;-65
2023/10/24 01:58:15;;;;;;;12.10;9.05;;;9.90;99.90;;;;;;5018973;28;20364;-65
2023/10/24 02:00:47;;;;;;;13.00;9.43;;;9.90;99.90;;;;;;5001328;28;20042;-65
2023/10/24 02:03:18;;;;;;;12.20;9.93;;;9.90;99.90;;;;;;5019764;28;20042;-64
2023/10/24 02:05:50;;;;;;;12.13;9.57;;;9.90;99.90;;;;;;5013539;28;20055;-64
2023/10/24 02:08:17;;;;;;;13.77;10.60;;;9.90;99.90;;;;;;5000848;28;20049;-65
2023/10/24 02:10:50;;;;;;;14.40;10.95;;;9.90;99.90;;;;;;5018127;28;20149;-64
2023/10/24 02:13:22;;;;;;;13.77;10.50;;;10.00;99.90;;;;;;5016982;28;20064;-64
2023/10/24 02:15:54;;;;;;;12.10;10.73;;;9.90;99.90;;;;;;5005918;28;20050;-64
2023/10/24 02:18:26;;;;;;;14.05;10.82;;;10.00;99.90;;;;;;5011702;28;20826;-64
2023/10/24 02:20:53;;;;;;;14.93;10.32;;;10.00;99.90;;;;;;5013855;28;20129;-64
2023/10/24 02:23:24;;;;;;;15.10;11.43;;;10.10;99.90;;;;;;5014684;28;20041;-64
2023/10/24 02:25:56;;;;;;;11.85;9.88;;;10.10;99.90;;;;;;5000628;28;20057;-65
2023/10/24 02:28:28;;;;;;;13.65;10.95;;;10.10;99.90;;;;;;5016339;28;20041;-65
2023/10/24 02:31:03;;;;;;;13.48;10.65;;;10.10;99.90;;;;;;5017851;28;20478;-64
2023/10/24 02:33:35;;;;;;;13.13;11.25;;;10.10;99.90;;;;;;5016961;28;20128;-65
2023/10/24 02:36:07;;;;;;;14.20;10.88;;;10.10;99.90;;;;;;5018498;28;20033;-64
2023/10/24 02:38:39;;;;;;;11.63;9.73;;;10.10;99.90;;;;;;5013117;28;20044;-65
2023/10/24 02:41:06;;;;;;;11.98;10.20;;;10.00;99.90;;;;;;5012238;28;20807;-65
2023/10/24 02:43:33;;;;;;;12.98;10.68;;;10.00;99.90;;;;;;5017317;28;20156;-64
2023/10/24 02:46:06;;;;;;;17.13;10.93;;;10.10;99.90;;;;;;5012348;28;20510;-65
2023/10/24 02:48:38;;;;;;;13.43;9.85;;;10.10;99.90;;;;;;5015873;28;20531;-65
2023/10/24 02:51:05;;;;;;;12.30;9.85;;;10.00;99.90;;;;;;5014861;28;20129;-64
2023/10/24 02:53:37;;;;;;;19.50;10.45;;;10.10;99.90;;;;;;5018549;28;20042;-65
2023/10/24 02:56:09;;;;;;;10.13;8.65;;;10.00;99.90;;;;;;5026047;28;20041;-65
2023/10/24 02:58:42;;;;;;;9.40;8.40;;;10.00;99.90;;;;;;5020915;28;20052;-64
2023/10/24 03:01:14;;;;;;;12.93;8.63;;;9.90;99.90;;;;;;5018826;28;20057;-65
2023/10/24 03:03:42;;;;;;;11.25;8.77;;;9.90;99.90;;;;;;5021578;28;20132;-64
2023/10/24 03:06:16;;;;;;;10.95;8.88;;;9.80;99.90;;;;;;5021194;28;20132;-65
2023/10/24 03:08:49;;;;;;;12.02;8.27;;;9.80;99.90;;;;;;5030894;28;20518;-65
2023/10/24 03:11:23;;;;;;;9.05;7.63;;;9.70;99.90;;;;;;5024510;28;20433;-65
2023/10/24 03:13:52;;;;;;;10.93;8.15;;;9.70;99.90;;;;;;5014561;28;20046;-64
2023/10/24 03:16:26;;;;;;;10.20;7.40;;;9.70;99.90;;;;;;4994573;28;20049;-65
2023/10/24 03:18:59;;;;;;;12.35;8.52;;;9.60;99.90;;;;;;5015452;28;20535;-65
2023/10/24 03:21:31;;;;;;;8.90;7.68;;;9.60;99.90;;;;;;5020339;28;20049;-65
2023/10/24 03:24:03;;;;;;;10.05;8.20;;;9.60;99.90;;;;;;5014329;28;20037;-65
2023/10/24 03:26:36;;;;;;;11.32;7.35;;;9.60;99.90;;;;;;5017629;28;20049;-64
2023/10/24 03:29:08;;;;;;;10.77;7.70;;;9.50;99.90;;;;;;5020401;28;20509;-65
2023/10/24 03:31:40;;;;;;;8.90;7.43;;;9.40;99.90;;;;;;5022146;28;20095;-65
2023/10/24 03:34:11;;;;;;;8.73;7.47;;;9.30;99.90;;;;;;5037463;28;20535;-65
2023/10/24 03:36:43;;;;;;;9.30;7.60;;;9.30;99.90;;;;;;5022418;28;20391;-65
2023/10/24 03:39:15;;;;;;;9.13;7.65;;;9.20;99.90;;;;;;5020983;28;20124;-65
2023/10/24 03:41:48;;;;;;;10.23;8.18;;;9.20;99.90;;;;;;5019746;28;20045;-65
2023/10/24 03:44:15;;;;;;;11.27;7.80;;;9.10;99.90;;;;;;5015515;28;20128;-65
2023/10/24 03:46:46;;;;;;;11.85;7.40;;;9.10;99.90;;;;;;5020036;28;20046;-65
2023/10/24 03:49:18;;;;;;;7.78;6.90;;;9.10;99.90;;;;;;5004032;28;20427;-65
2023/10/24 03:51:50;;;;;;;13.07;7.63;;;9.10;99.90;;;;;;5020168;28;20046;-64
2023/10/24 03:54:22;;;;;;;9.52;7.00;;;9.10;99.90;;;;;;5017100;28;20038;-65
2023/10/24 03:56:54;;;;;;;8.77;6.32;;;9.10;99.90;;;;;;5024036;28;20038;-65
2023/10/24 03:59:26;;;;;;;10.57;8.18;;;9.10;99.90;;;;;;5017669;28;20041;-65
2023/10/24 04:01:58;;;;;;;9.02;7.30;;;9.10;99.90;;;;;;5013083;28;20052;-65
2023/10/24 04:04:30;;;;;;;8.30;6.45;;;9.00;99.90;;;;;;5012787;28;20045;-65
2023/10/24 04:07:04;;;;;;;8.73;7.45;;;9.00;99.90;;;;;;5020136;28;20053;-64
2023/10/24 04:09:31;;;;;;;9.65;8.02;;;9.00;99.90;;;;;;5023232;28;20076;-65
2023/10/24 04:12:04;;;;;;;10.10;8.15;;;9.00;99.90;;;;;;5019747;28;20432;-65
2023/10/24 04:14:30;;;;;;;8.35;7.55;;;9.00;99.90;;;;;;5013533;28;20056;-65
2023/10/24 04:16:57;;;;;;;10.95;8.63;;;9.00;99.90;;;;;;5011793;28;20066;-65
2023/10/24 04:19:29;;;;;;;8.23;6.93;;;9.00;99.90;;;;;;5006991;28;20034;-65
2023/10/24 04:22:02;;;;;;;10.77;8.32;;;9.00;99.90;;;;;;5023402;28;20042;-64
2023/10/24 04:24:34;;;;;;;10.95;6.95;;;9.00;99.90;;;;;;5029610;28;20046;-64
2023/10/24 04:27:21;;;;;;;10.65;7.80;;;9.00;99.90;;;;;;4978386;28;20811;-64
2023/10/24 04:29:53;;;;;;;9.65;7.03;;;9.10;99.90;;;;;;5017262;28;20042;-64
2023/10/24 04:32:25;;;;;;;11.30;8.27;;;9.10;99.90;;;;;;5018986;28;20120;-65
2023/10/24 04:34:57;;;;;;;9.93;8.05;;;9.10;99.90;;;;;;5016954;28;20505;-64
2023/10/24 04:37:29;;;;;;;9.48;7.93;;;9.10;99.90;;;;;;5018649;28;20038;-64
2023/10/24 04:40:01;;;;;;;9.98;7.82;;;9.10;99.90;;;;;;5016304;28;20042;-65
2023/10/24 04:42:28;;;;;;;12.45;10.38;;;9.10;99.90;;;;;;5018633;28;20033;-66
2023/10/24 04:44:55;;;;;;;10.15;8.10;;;9.10;99.90;;;;;;5015025;28;20046;-64
2023/10/24 04:47:27;;;;;;;11.40;7.82;;;9.10;99.90;;;;;;5014881;28;20045;-64
2023/10/24 04:49:58;;;;;;;11.70;8.20;;;9.10;99.90;;;;;;5007352;28;20042;-64
2023/10/24 04:52:31;;;;;;;12.32;9.20;;;9.10;99.90;;;;;;5010727;28;20065;-64
2023/10/24 04:55:03;;;;;;;10.70;7.88;;;9.10;99.90;;;;;;5017640;28;20045;-64
2023/10/24 04:57:35;;;;;;;11.00;6.50;;;9.00;99.90;;;;;;5014167;28;20048;-64
2023/10/24 05:00:07;;;;;;;14.48;9.07;;;9.00;99.90;;;;;;5000890;28;20532;-64
2023/10/24 05:02:39;;;;;;;11.75;7.85;;;9.00;99.90;;;;;;5015059;28;20030;-64
2023/10/24 05:05:11;;;;;;;10.65;7.88;;;9.00;99.90;;;;;;5021268;28;20049;-64
2023/10/24 05:07:44;;;;;;;9.30;7.93;;;9.10;99.90;;;;;;5019749;28;20070;-64
2023/10/24 05:10:16;;;;;;;8.88;7.15;;;9.00;99.90;;;;;;5023313;28;20128;-64
2023/10/24 05:12:47;;;;;;;10.23;7.95;;;9.00;99.90;;;;;;5014670;28;20060;-64
2023/10/24 05:15:14;;;;;;;9.55;7.43;;;9.10;99.90;;;;;;5014390;28;20394;-64
2023/10/24 05:17:41;;;;;;;13.25;7.80;;;9.10;99.90;;;;;;5021213;28;20091;-64
2023/10/24 05:20:16;;;;;;;20.88;10.02;;;9.10;99.90;;;;;;5015275;28;20037;-64
2023/10/24 05:22:43;;;;;;;14.93;8.80;;;9.00;99.90;;;;;;5010086;28;20124;-64
2023/10/24 05:25:16;;;;;;;10.88;8.07;;;9.00;99.90;;;;;;5011955;28;20037;-64
2023/10/24 05:27:48;;;;;;;14.00;8.07;;;9.00;99.90;;;;;;5019042;28;20068;-64
2023/10/24 05:30:21;;;;;;;12.93;8.20;;;9.10;99.90;;;;;;5013916;28;20537;-64
2023/10/24 05:32:53;;;;;;;8.48;7.50;;;9.00;99.90;;;;;;5014605;28;20228;-64
2023/10/24 05:35:25;;;;;;;8.93;7.90;;;9.00;99.90;;;;;;5015818;28;20046;-64
2023/10/24 05:37:56;;;;;;;10.52;9.50;;;9.00;99.90;;;;;;5014914;28;20044;-64
2023/10/24 05:40:30;;;;;;;13.32;11.05;;;9.00;99.90;;;;;;5018877;28;20039;-64
2023/10/24 05:42:56;;;;;;;14.40;10.80;;;9.00;99.90;;;;;;5010587;28;20121;-64
2023/10/24 05:45:28;;;;;;;15.40;12.43;;;9.00;99.90;;;;;;5009037;28;20052;-65
2023/10/24 05:47:55;;;;;;;14.25;10.85;;;9.00;99.90;;;;;;5015053;28;20053;-66
2023/10/24 05:50:29;;;;;;;17.55;11.40;;;9.00;99.90;;;;;;5031908;28;20128;-65
2023/10/24 05:53:01;;;;;;;11.98;9.63;;;9.00;99.90;;;;;;5009385;28;20038;-65
2023/10/24 05:55:34;;;;;;;14.48;10.65;;;9.10;99.90;;;;;;5010643;28;20509;-64
2023/10/24 05:58:06;;;;;;;11.95;9.88;;;9.10;99.90;;;;;;5016620;28;20549;-65
2023/10/24 06:00:37;;;;;;;10.10;9.13;;;9.10;99.90;;;;;;5010547;28;20528;-65
2023/10/24 06:03:04;;;;;;;10.13;9.13;;;9.10;99.90;;;;;;5016664;28;20494;-65
2023/10/24 06:05:31;;;;;;;14.40;11.90;;;9.10;99.90;;;;;;5019252;28;20069;-65
2023/10/24 06:08:04;;;;;;;38.20;21.88;;;9.20;99.90;;;;;;5013466;28;20053;-65
2023/10/24 06:10:31;;;;;;;61.00;31.98;;;9.20;99.90;;;;;;5016574;28;20143;-65
2023/10/24 06:13:03;;;;;;;36.05;21.48;;;9.20;99.90;;;;;;5014347;28;20042;-65
2023/10/24 06:15:35;;;;;;;25.65;15.30;;;9.20;99.90;;;;;;5010608;28;20042;-65
2023/10/24 06:18:07;;;;;;;18.10;14.55;;;9.20;99.90;;;;;;5014406;28;20532;-65
2023/10/24 06:20:38;;;;;;;16.48;13.75;;;9.20;99.90;;;;;;5012020;28;20030;-65
2023/10/24 06:23:11;;;;;;;15.80;10.13;;;9.20;99.90;;;;;;5003808;28;20136;-65
2023/10/24 06:25:39;;;;;;;10.48;8.85;;;9.20;99.90;;;;;;5015597;28;20577;-65
2023/10/24 06:28:06;;;;;;;11.82;9.35;;;9.20;99.90;;;;;;5025973;28;20569;-65
2023/10/24 06:30:38;;;;;;;12.97;10.37;;;9.20;99.90;;;;;;5013526;28;20041;-65
2023/10/24 06:33:10;;;;;;;12.75;11.23;;;9.20;99.90;;;;;;5012257;28;20053;-65
2023/10/24 06:35:42;;;;;;;14.48;10.77;;;9.30;99.90;;;;;;5021259;28;20129;-65
2023/10/24 06:38:14;;;;;;;32.33;15.88;;;9.30;99.90;;;;;;5017066;28;20505;-65
2023/10/24 06:40:48;;;;;;;25.05;16.42;;;9.30;99.90;;;;;;5021925;28;20133;-65
2023/10/24 06:43:19;;;;;;;29.83;20.60;;;9.40;99.90;;;;;;5022810;28;20044;-65
2023/10/24 06:45:52;;;;;;;38.83;26.63;;;9.30;99.90;;;;;;5016863;28;20041;-65
2023/10/24 06:48:23;;;;;;;82.68;55.60;;;9.40;99.90;;;;;;5018915;28;20498;-65
2023/10/24 06:50:55;;;;;;;98.03;70.10;;;9.40;99.90;;;;;;5022747;28;20053;-65
2023/10/24 06:53:22;;;;;;;72.35;51.40;;;9.40;99.90;;;;;;5009243;28;20034;-65
2023/10/24 06:56:01;;;;;;;24.95;19.10;;;9.40;99.90;;;;;;4995278;28;20153;-65
2023/10/24 06:58:32;;;;;;;26.33;18.83;;;9.40;99.90;;;;;;5013817;28;20049;-65
2023/10/24 07:01:04;;;;;;;22.45;18.08;;;9.40;99.90;;;;;;5031876;28;20421;-65
2023/10/24 07:03:36;;;;;;;23.33;17.23;;;9.40;99.90;;;;;;5014438;28;20041;-65
2023/10/24 07:06:10;;;;;;;21.63;17.17;;;9.40;99.90;;;;;;5019778;28;20101;-65
2023/10/24 07:08:42;;;;;;;32.40;25.15;;;9.40;99.90;;;;;;5017213;28;20073;-65
2023/10/24 07:11:14;;;;;;;37.90;28.90;;;9.50;99.90;;;;;;5019853;28;20038;-65
2023/10/24 07:13:41;;;;;;;30.00;25.70;;;9.50;99.90;;;;;;5019361;28;20041;-65
2023/10/24 07:16:14;;;;;;;19.23;16.23;;;9.50;99.90;;;;;;5022263;28;20038;-65
2023/10/24 07:18:46;;;;;;;17.60;14.73;;;9.50;99.90;;;;;;5018593;28;20112;-65
2023/10/24 07:21:18;;;;;;;16.25;13.02;;;9.50;99.90;;;;;;5003849;28;20497;-65
2023/10/24 07:23:45;;;;;;;12.25;10.93;;;9.50;99.90;;;;;;5017854;28;20040;-65
2023/10/24 07:26:17;;;;;;;13.35;11.95;;;9.50;99.90;;;;;;5012344;28;20046;-65
2023/10/24 07:28:48;;;;;;;18.70;13.55;;;9.50;99.90;;;;;;5013539;28;20041;-65
2023/10/24 07:31:20;;;;;;;23.83;18.77;;;9.50;99.90;;;;;;5014786;28;20607;-65
2023/10/24 07:33:52;;;;;;;27.55;21.98;;;9.50;99.90;;;;;;5008962;28;20042;-65
2023/10/24 07:36:28;;;;;;;23.52;19.15;;;9.50;99.90;;;;;;5020254;28;20469;-65
2023/10/24 07:39:00;;;;;;;26.33;19.10;;;9.50;99.90;;;;;;5017640;28;20042;-65
2023/10/24 07:41:27;;;;;;;23.15;18.55;;;9.50;99.90;;;;;;5020679;28;20133;-65
2023/10/24 07:43:59;;;;;;;23.95;18.98;;;9.50;99.90;;;;;;5010690;28;20046;-65
2023/10/24 07:46:31;;;;;;;22.55;17.45;;;9.60;99.90;;;;;;5018828;28;20045;-65
2023/10/24 07:48:58;;;;;;;22.70;18.40;;;9.60;99.90;;;;;;5017589;28;20121;-65
2023/10/24 07:51:31;;;;;;;21.73;18.17;;;9.70;99.90;;;;;;5022712;28;20064;-65
2023/10/24 07:53:58;;;;;;;23.40;17.57;;;9.70;99.90;;;;;;5016210;28;20477;-65
2023/10/24 07:56:30;;;;;;;18.67;16.63;;;9.70;99.90;;;;;;5010566;28;20034;-65
2023/10/24 07:58:56;;;;;;;19.02;14.02;;;9.80;99.90;;;;;;5011937;28;20042;-65
2023/10/24 08:01:23;;;;;;;17.60;13.52;;;9.80;99.90;;;;;;5012082;28;20485;-65
2023/10/24 08:03:55;;;;;;;20.60;15.75;;;9.80;99.90;;;;;;5016602;28;20053;-65
2023/10/24 08:06:22;;;;;;;24.83;17.50;;;9.90;99.90;;;;;;5022266;28;20034;-65
2023/10/24 08:08:54;;;;;;;19.42;15.27;;;9.90;99.90;;;;;;5015679;28;20037;-65
2023/10/24 08:11:21;;;;;;;17.63;13.43;;;10.00;99.90;;;;;;5020792;28;20091;-65
2023/10/24 08:13:48;;;;;;;20.40;13.52;;;10.00;99.90;;;;;;5016922;28;20042;-65
2023/10/24 08:16:14;;;;;;;16.55;11.57;;;10.00;99.90;;;;;;5022673;28;20056;-65
2023/10/24 08:18:46;;;;;;;14.85;11.88;;;10.00;99.90;;;;;;5013372;28;20049;-65
2023/10/24 08:21:18;;;;;;;13.38;10.57;;;10.10;99.90;;;;;;5007856;28;20493;-65
2023/10/24 08:23:51;;;;;;;14.23;11.05;;;10.10;99.90;;;;;;5012362;28;20042;-65
2023/10/24 08:26:22;;;;;;;14.90;11.57;;;10.10;99.90;;;;;;5012006;28;20359;-65
2023/10/24 08:28:49;;;;;;;16.52;13.35;;;10.10;99.90;;;;;;5011614;28;20041;-65
2023/10/24 08:31:21;;;;;;;15.20;12.05;;;10.10;99.90;;;;;;5009624;28;20046;-65
2023/10/24 08:33:53;;;;;;;16.95;15.15;;;10.10;99.90;;;;;;5002922;28;20061;-65
2023/10/24 08:36:25;;;;;;;15.15;12.95;;;10.20;99.90;;;;;;5021395;28;20045;-66
2023/10/24 08:38:56;;;;;;;12.07;10.77;;;10.20;99.90;;;;;;5014936;28;20048;-65
2023/10/24 08:41:29;;;;;;;12.13;9.85;;;10.30;99.90;;;;;;5020044;28;20037;-64
2023/10/24 08:43:56;;;;;;;12.35;10.68;;;10.30;99.90;;;;;;5017938;28;20528;-65
2023/10/24 08:46:28;;;;;;;13.05;10.38;;;10.40;99.90;;;;;;5015001;28;20048;-65
2023/10/24 08:49:02;;;;;;;13.77;9.85;;;10.30;99.90;;;;;;5020068;28;20065;-65
2023/10/24 08:51:34;;;;;;;12.52;10.48;;;10.30;99.90;;;;;;5022914;28;20046;-65
2023/10/24 08:54:06;;;;;;;14.20;10.20;;;10.40;99.90;;;;;;5021662;28;20038;-65
2023/10/24 08:56:35;;;;;;;13.98;11.10;;;10.30;99.90;;;;;;5013029;28;20497;-65
2023/10/24 08:59:09;;;;;;;11.48;10.27;;;10.40;99.90;;;;;;5014401;28;20050;-65
2023/10/24 09:01:42;;;;;;;15.32;10.00;;;10.40;99.90;;;;;;5020395;28;20128;-65
2023/10/24 09:04:09;;;;;;;13.60;11.40;;;10.40;99.90;;;;;;5013317;28;20041;-65
2023/10/24 09:06:41;;;;;;;11.32;10.13;;;10.40;99.90;;;;;;5023017;28;20682;-65
2023/10/24 09:09:14;;;;;;;12.15;10.52;;;10.40;99.90;;;;;;5010212;28;20037;-65
2023/10/24 09:11:58;;;;;;;10.23;9.15;;;10.30;99.90;;;;;;5014841;28;20045;-65
2023/10/24 09:14:30;;;;;;;13.50;10.75;;;10.30;99.90;;;;;;4994352;28;20042;-65
2023/10/24 09:17:05;;;;;;;12.63;10.40;;;10.30;99.90;;;;;;5015353;28;20038;-65
2023/10/24 09:19:40;;;;;;;16.80;12.30;;;10.20;99.90;;;;;;5009409;28;20059;-65
2023/10/24 09:22:06;;;;;;;11.75;10.55;;;10.20;99.90;;;;;;5015734;28;20038;-65
2023/10/24 09:24:46;;;;;;;13.13;11.52;;;10.20;99.90;;;;;;5015458;28;20418;-65
2023/10/24 09:27:14;;;;;;;15.23;10.60;;;10.20;99.90;;;;;;5003529;28;20038;-65
2023/10/24 09:29:49;;;;;;;15.63;11.98;;;10.20;99.90;;;;;;5012426;28;20038;-65
2023/10/24 09:32:21;;;;;;;14.32;10.65;;;10.20;99.90;;;;;;5004343;28;20049;-65
2023/10/24 09:34:53;;;;;;;14.60;12.10;;;10.30;99.90;;;;;;5012236;28;20137;-65
2023/10/24 09:37:24;;;;;;;14.73;11.18;;;10.30;99.90;;;;;;5013162;28;20092;-65
2023/10/24 09:40:00;;;;;;;13.98;11.80;;;10.40;99.90;;;;;;5017435;28;20044;-66
2023/10/24 09:42:32;;;;;;;13.70;10.85;;;10.40;99.90;;;;;;5014847;28;20413;-65
2023/10/24 09:45:01;;;;;;;12.02;10.65;;;10.50;99.90;;;;;;5019834;28;20042;-65
2023/10/24 09:47:33;;;;;;;14.25;11.60;;;10.50;99.90;;;;;;5016240;28;20699;-65
2023/10/24 09:50:07;;;;;;;13.55;11.05;;;10.60;99.90;;;;;;5035781;28;20056;-65
2023/10/24 09:52:36;;;;;;;12.50;10.95;;;10.60;99.90;;;;;;5026248;28;20061;-65
2023/10/24 09:55:09;;;;;;;15.40;11.70;;;10.70;99.90;;;;;;5012912;28;20033;-65
2023/10/24 09:57:44;;;;;;;12.73;11.43;;;10.70;99.90;;;;;;5015758;28;20510;-65
2023/10/24 10:00:17;;;;;;;17.35;12.32;;;10.80;99.90;;;;;;5024413;28;20057;-66
2023/10/24 10:02:50;;;;;;;14.13;11.38;;;10.80;99.90;;;;;;5012942;28;20042;-65
2023/10/24 10:05:23;;;;;;;16.63;12.27;;;10.80;99.90;;;;;;5020086;28;20056;-65
2023/10/24 10:07:51;;;;;;;15.52;12.25;;;10.90;99.90;;;;;;5024935;28;20164;-65
2023/10/24 10:10:27;;;;;;;17.25;12.88;;;10.90;99.90;;;;;;5021801;28;20046;-65
2023/10/24 10:13:05;;;;;;;17.77;13.13;;;11.00;99.90;;;;;;5018689;28;20044;-66
2023/10/24 10:15:57;;;;;;;17.92;13.15;;;11.00;99.90;;;;;;5017790;28;20549;-66
2023/10/24 10:18:42;;;;;;;14.27;12.55;;;11.00;99.90;;;;;;5011117;28;20533;-66
2023/10/24 10:21:58;;;;;;;15.27;12.82;;;11.10;99.90;;;;;;5020606;28;20038;-66
2023/10/24 10:25:12;;;;;;;17.92;12.23;;;11.20;99.90;;;;;;4926563;29;20032;-66
2023/10/24 10:27:42;;;;;;;13.77;12.27;;;11.20;99.90;;;;;;5008593;28;20088;-66
2023/10/24 10:30:50;;;;;;;16.92;11.95;;;11.30;99.90;;;;;;5009518;28;20072;-66
2023/10/24 10:33:24;;;;;;;17.80;12.43;;;11.30;99.90;;;;;;5021106;28;20046;-66
2023/10/24 10:36:01;;;;;;;15.85;12.48;;;11.40;99.90;;;;;;5016639;28;20041;-66
2023/10/24 10:38:50;;;;;;;16.50;12.70;;;11.40;99.90;;;;;;5010470;28;20156;-66
2023/10/24 10:41:29;;;;;;;16.45;13.68;;;11.40;99.90;;;;;;5017985;28;20132;-66
2023/10/24 10:44:02;;;;;;;16.65;13.48;;;11.50;99.90;;;;;;5017525;28;20066;-66
2023/10/24 10:46:34;;;;;;;17.27;13.40;;;11.50;99.90;;;;;;5016372;28;20045;-66
2023/10/24 10:49:07;;;;;;;14.80;13.20;;;11.50;99.90;;;;;;5018671;28;20073;-66
2023/10/24 10:51:39;;;;;;;15.80;13.05;;;11.60;99.90;;;;;;5015972;28;20037;-66
2023/10/24 10:54:37;;;;;;;14.07;12.45;;;11.60;99.90;;;;;;5016513;28;20049;-66
2023/10/24 10:57:16;;;;;;;19.17;13.85;;;11.60;99.90;;;;;;5004602;28;20041;-66
2023/10/24 11:00:00;;;;;;;15.52;12.60;;;11.70;99.90;;;;;;5009184;28;20506;-66
2023/10/24 11:02:46;;;;;;;20.45;13.63;;;11.70;99.90;;;;;;5007409;28;20057;-66
2023/10/24 11:05:37;;;;;;;16.80;13.70;;;11.70;99.90;;;;;;4999254;28;20038;-66
2023/10/24 11:08:17;;;;;;;16.08;12.90;;;11.70;99.90;;;;;;5028869;28;20033;-66
2023/10/24 11:10:56;;;;;;;22.13;14.77;;;11.70;99.90;;;;;;5010045;28;20045;-66
2023/10/24 11:13:39;;;;;;;16.15;11.80;;;11.80;99.90;;;;;;5021805;28;20049;-66
2023/10/24 11:16:12;;;;;;;16.63;12.57;;;11.90;99.90;;;;;;5035623;28;20056;-66
2023/10/24 11:18:45;;;;;;;15.65;12.10;;;11.90;99.90;;;;;;5018255;28;20034;-66
2023/10/24 11:21:15;;;;;;;16.73;12.85;;;11.90;99.90;;;;;;5017617;28;20040;-65
2023/10/24 11:23:47;;;;;;;14.18;12.23;;;11.90;99.90;;;;;;5011160;28;20046;-66
2023/10/24 11:26:19;;;;;;;16.80;13.18;;;11.90;99.90;;;;;;5028042;28;20531;-65
2023/10/24 11:28:51;;;;;;;18.63;14.10;;;11.80;99.90;;;;;;5019056;28;20048;-65
2023/10/24 11:31:26;;;;;;;16.70;14.00;;;11.80;99.90;;;;;;5010818;28;20046;-65
2023/10/24 11:33:58;;;;;;;17.58;15.73;;;11.70;99.90;;;;;;5009584;28;20050;-65
2023/10/24 11:36:27;;;;;;;18.77;15.70;;;11.70;99.90;;;;;;5013415;28;20038;-66
2023/10/24 11:39:04;;;;;;;19.88;16.15;;;11.60;99.90;;;;;;5017952;28;20048;-66
2023/10/24 11:41:36;;;;;;;17.73;15.30;;;11.50;99.90;;;;;;5020004;28;20052;-66
2023/10/24 11:44:11;;;;;;;19.67;16.30;;;11.40;99.90;;;;;;5014349;28;20048;-66
2023/10/24 11:46:44;;;;;;;18.60;16.65;;;11.40;99.90;;;;;;5016424;28;20046;-66
2023/10/24 11:49:11;;;;;;;17.98;15.60;;;11.40;99.90;;;;;;5021332;28;20420;-66
2023/10/24 11:51:44;;;;;;;18.17;15.25;;;11.30;99.90;;;;;;5019887;28;20051;-65
2023/10/24 11:54:16;;;;;;;20.23;16.52;;;11.40;99.90;;;;;;5019736;28;20054;-65
2023/10/24 11:56:48;;;;;;;20.80;17.05;;;11.40;99.90;;;;;;5030549;28;20046;-65
2023/10/24 11:59:20;;;;;;;22.75;16.02;;;11.30;99.90;;;;;;5008383;28;20464;-65
2023/10/24 12:01:52;;;;;;;19.83;17.30;;;11.30;99.90;;;;;;5012292;28;20042;-66
2023/10/24 12:04:19;;;;;;;18.58;15.23;;;11.30;99.90;;;;;;5007171;28;20120;-66
2023/10/24 12:07:04;;;;;;;20.48;15.38;;;11.30;99.90;;;;;;5000540;28;20053;-66
2023/10/24 12:09:36;;;;;;;20.15;15.52;;;11.40;99.90;;;;;;5014938;28;20409;-65
2023/10/24 12:12:11;;;;;;;20.50;15.10;;;11.40;99.90;;;;;;5020380;28;20049;-65
2023/10/24 12:14:40;;;;;;;19.00;14.30;;;11.40;99.90;;;;;;5018912;28;20567;-66
2023/10/24 12:17:08;;;;;;;23.63;17.00;;;11.40;99.90;;;;;;5018353;28;20030;-66
2023/10/24 12:19:40;;;;;;;18.10;13.82;;;11.50;99.90;;;;;;5017641;28;20040;-65
2023/10/24 12:22:07;;;;;;;16.75;13.40;;;11.50;99.90;;;;;;5020313;28;20045;-65
2023/10/24 12:24:38;;;;;;;17.65;12.65;;;11.50;99.90;;;;;;5021604;28;20042;-65
2023/10/24 12:27:10;;;;;;;18.80;11.65;;;11.40;99.90;;;;;;5015226;28;20096;-65
2023/10/24 12:29:42;;;;;;;14.75;11.02;;;11.50;99.90;;;;;;5014147;28;20042;-65
2023/10/24 12:32:14;;;;;;;13.80;11.43;;;11.50;99.90;;;;;;5018131;28;20533;-65
2023/10/24 12:34:45;;;;;;;14.02;11.68;;;11.50;99.90;;;;;;5007567;28;20046;-66
2023/10/24 12:37:18;;;;;;;13.70;11.57;;;11.50;99.90;;;;;;5013448;28;20520;-66
2023/10/24 12:39:51;;;;;;;14.15;11.15;;;11.60;99.90;;;;;;5011507;28;20509;-66
2023/10/24 12:42:18;;;;;;;15.30;11.38;;;11.60;99.90;;;;;;5014350;28;20077;-66
2023/10/24 12:44:45;;;;;;;18.52;12.93;;;11.60;99.90;;;;;;5015008;28;20114;-65
2023/10/24 12:47:19;;;;;;;14.05;12.13;;;11.60;99.90;;;;;;5020706;28;20200;-66
2023/10/24 12:49:51;;;;;;;13.20;11.77;;;11.60;99.90;;;;;;5016794;28;20056;-66
2023/10/24 12:52:24;;;;;;;12.20;9.90;;;11.60;99.90;;;;;;5018759;28;20045;-66
2023/10/24 12:54:51;;;;;;;11.10;9.98;;;11.70;99.90;;;;;;5025945;28;20107;-66
2023/10/24 12:57:23;;;;;;;11.38;9.40;;;11.70;99.90;;;;;;5013608;28;20092;-66
2023/10/24 12:59:55;;;;;;;13.27;9.80;;;11.70;99.90;;;;;;5010166;28;20707;-66
2023/10/24 13:02:27;;;;;;;15.25;10.63;;;11.70;99.90;;;;;;5008893;28;20056;-66
2023/10/24 13:04:59;;;;;;;14.80;11.65;;;11.70;99.90;;;;;;5013973;28;20145;-66